createdAt,value
2023-01-23T00:02:45.982Z,87.00
2023-01-23T00:06:00.044Z,86.90
2023-01-23T00:09:03.614Z,86.90
2023-01-23T00:12:05.358Z,87.00
2023-01-23T00:15:10.719Z,86.90
2023-01-23T00:18:12.355Z,87.00
2023-01-23T00:21:18.206Z,87.00
2023-01-23T00:24:19.577Z,87.00
2023-01-23T00:27:23.045Z,87.00
2023-01-23T00:30:24.551Z,86.90
2023-01-23T00:33:28.082Z,86.90
2023-01-23T00:36:32.611Z,86.90
2023-01-23T00:39:36.224Z,87.00
2023-01-23T00:42:37.708Z,87.00
2023-01-23T00:45:41.223Z,87.00
2023-01-23T00:48:42.975Z,87.00
2023-01-23T00:51:46.425Z,87.00
2023-01-23T00:54:47.852Z,87.00
2023-01-23T00:57:51.314Z,86.90
2023-01-23T01:00:52.937Z,87.00
2023-01-23T01:03:57.211Z,87.00
2023-01-23T01:06:58.691Z,87.10
2023-01-23T01:10:02.715Z,87.00
2023-01-23T01:13:04.283Z,87.10
2023-01-23T01:16:08.369Z,87.10
2023-01-23T01:19:11.952Z,87.10
2023-01-23T01:22:15.643Z,87.10
2023-01-23T01:25:17.443Z,87.10
2023-01-23T01:28:20.896Z,87.10
2023-01-23T01:31:22.987Z,87.10
2023-01-23T01:34:26.534Z,87.00
2023-01-23T01:37:28.006Z,87.10
2023-01-23T01:40:34.244Z,87.20
2023-01-23T01:43:36.138Z,87.10
2023-01-23T01:46:40.313Z,87.20
2023-01-23T01:49:42.026Z,87.20
2023-01-23T01:52:45.937Z,87.20
2023-01-23T01:55:48.796Z,87.20
2023-01-23T01:58:53.456Z,87.20
2023-01-23T02:02:04.628Z,87.10
2023-01-23T02:05:16.455Z,87.20
2023-01-23T02:08:42.368Z,87.30
2023-01-23T02:11:45.887Z,87.20
2023-01-23T02:14:47.446Z,87.20
2023-01-23T02:17:52.487Z,87.20
2023-01-23T02:20:57.135Z,87.20
2023-01-23T02:24:16.505Z,87.20
2023-01-23T02:27:17.955Z,87.30
2023-01-23T02:30:22.203Z,87.30
2023-01-23T02:33:25.815Z,87.20
2023-01-23T02:36:31.732Z,87.20
2023-01-23T02:39:36.493Z,87.20
2023-01-23T02:42:44.233Z,87.20
2023-01-23T02:45:48.377Z,87.20
2023-01-23T02:48:53.084Z,87.20
2023-01-23T02:51:56.338Z,87.20
2023-01-23T02:55:00.436Z,87.20
2023-01-23T02:58:20.481Z,87.20
2023-01-23T03:01:25.113Z,87.30
2023-01-23T03:04:27.549Z,87.20
2023-01-23T03:07:31.068Z,87.20
2023-01-23T03:10:32.569Z,87.30
2023-01-23T03:13:36.108Z,87.20
2023-01-23T03:16:40.838Z,87.30
2023-01-23T03:19:44.341Z,87.30
2023-01-23T03:22:46.300Z,87.20
2023-01-23T03:25:57.830Z,87.10
2023-01-23T03:29:21.310Z,87.20
2023-01-23T03:32:25.535Z,87.20
2023-01-23T03:35:28.497Z,87.20
2023-01-23T03:38:32.337Z,87.20
2023-01-23T03:41:33.883Z,86.70
2023-01-23T03:44:40.388Z,87.20
2023-01-23T03:47:41.873Z,87.30
2023-01-23T03:50:45.518Z,87.30
2023-01-23T03:53:47.306Z,87.30
2023-01-23T03:56:51.508Z,87.30
2023-01-23T04:00:13.545Z,87.30
2023-01-23T04:03:39.952Z,87.40
2023-01-23T04:06:42.386Z,87.40
2023-01-23T04:09:47.251Z,87.40
2023-01-23T04:12:48.721Z,87.40
2023-01-23T04:15:52.309Z,87.40
2023-01-23T04:18:54.415Z,87.40
2023-01-23T04:21:59.101Z,87.40
2023-01-23T04:25:00.779Z,87.40
2023-01-23T04:28:04.444Z,87.40
2023-01-23T04:31:06.255Z,87.90
2023-01-23T04:34:11.340Z,87.40
2023-01-23T04:37:14.127Z,87.40
2023-01-23T04:40:18.161Z,87.40
2023-01-23T04:43:29.927Z,87.40
2023-01-23T04:46:33.639Z,87.40
2023-01-23T04:49:42.787Z,87.40
2023-01-23T04:52:46.817Z,87.40
2023-01-23T04:55:49.152Z,87.40
2023-01-23T04:58:53.821Z,87.40
2023-01-23T05:01:57.163Z,87.40
2023-01-23T05:05:01.696Z,87.40
2023-01-23T05:08:03.560Z,87.40
2023-01-23T05:11:07.245Z,87.40
2023-01-23T05:14:08.815Z,87.40
2023-01-23T05:17:12.341Z,87.40
2023-01-23T05:20:22.979Z,87.40
2023-01-23T05:23:26.543Z,87.30
2023-01-23T05:26:29.142Z,87.40
2023-01-23T05:29:33.185Z,87.40
2023-01-23T05:32:43.304Z,87.40
2023-01-23T05:36:01.530Z,87.50
2023-01-23T05:39:03.404Z,87.50
2023-01-23T05:42:07.158Z,87.40
2023-01-23T05:45:26.138Z,87.50
2023-01-23T05:48:29.775Z,87.50
2023-01-23T05:51:33.200Z,87.50
2023-01-23T05:54:37.365Z,87.40
2023-01-23T05:57:38.966Z,87.50
2023-01-23T06:01:14.578Z,87.50
2023-01-23T06:04:34.690Z,87.40
2023-01-23T06:07:48.185Z,87.40
2023-01-23T06:10:50.356Z,87.50
2023-01-23T06:13:55.227Z,87.50
2023-01-23T06:16:57.250Z,87.50
2023-01-23T06:20:00.770Z,87.50
2023-01-23T06:23:02.751Z,87.60
2023-01-23T06:26:06.288Z,87.50
2023-01-23T06:29:08.967Z,87.50
2023-01-23T06:32:13.085Z,87.60
2023-01-23T06:35:14.970Z,87.60
2023-01-23T06:38:19.675Z,87.50
2023-01-23T06:41:23.929Z,87.60
2023-01-23T06:44:29.644Z,87.50
2023-01-23T06:47:31.678Z,87.60
2023-01-23T06:50:38.338Z,87.50
2023-01-23T06:53:39.970Z,87.50
2023-01-23T06:56:43.585Z,87.50
2023-01-23T06:59:46.386Z,87.50
2023-01-23T07:02:52.522Z,87.60
2023-01-23T07:05:54.061Z,87.60
2023-01-23T07:08:57.539Z,87.70
2023-01-23T07:11:59.577Z,87.60
2023-01-23T07:15:06.592Z,87.60
2023-01-23T07:18:12.861Z,87.70
2023-01-23T07:21:16.410Z,87.60
2023-01-23T07:24:17.874Z,87.70
2023-01-23T07:27:21.452Z,87.70
2023-01-23T07:30:23.432Z,87.70
2023-01-23T07:33:27.821Z,87.70
2023-01-23T07:36:29.641Z,87.70
2023-01-23T07:39:33.112Z,87.70
2023-01-23T07:42:34.621Z,87.70
2023-01-23T07:45:38.387Z,87.70
2023-01-23T07:48:39.883Z,87.60
2023-01-23T07:51:43.600Z,87.70
2023-01-23T07:54:45.087Z,87.80
2023-01-23T07:57:48.843Z,87.80
2023-01-23T08:00:50.389Z,87.70
2023-01-23T08:03:54.257Z,87.80
2023-01-23T08:06:55.703Z,87.80
2023-01-23T08:09:59.173Z,87.90
2023-01-23T08:13:00.639Z,87.90
2023-01-23T08:16:05.404Z,87.90
2023-01-23T08:19:07.798Z,87.80
2023-01-23T08:22:11.299Z,87.80
2023-01-23T08:25:12.793Z,87.90
2023-01-23T08:28:16.304Z,87.80
2023-01-23T08:31:18.177Z,87.90
2023-01-23T08:34:23.487Z,87.90
2023-01-23T08:37:25.082Z,87.90
2023-01-23T08:40:28.752Z,87.90
2023-01-23T08:43:30.714Z,87.90
2023-01-23T08:46:34.199Z,88.00
2023-01-23T08:49:36.064Z,87.90
2023-01-23T08:52:39.659Z,87.90
2023-01-23T08:55:41.293Z,88.00
2023-01-23T08:58:45.639Z,88.00
2023-01-23T09:01:47.467Z,88.00
2023-01-23T09:04:50.921Z,88.00
2023-01-23T09:07:52.394Z,87.90
2023-01-23T09:11:00.821Z,87.90
2023-01-23T09:14:02.354Z,87.90
2023-01-23T09:17:06.015Z,88.50
2023-01-23T09:20:08.743Z,87.90
2023-01-23T09:23:12.267Z,87.90
2023-01-23T09:26:14.655Z,88.10
2023-01-23T09:29:18.165Z,88.10
2023-01-23T09:32:19.614Z,88.10
2023-01-23T09:35:23.232Z,88.00
2023-01-23T09:38:24.896Z,88.10
2023-01-23T09:41:29.051Z,88.10
2023-01-23T09:44:41.674Z,88.10
2023-01-23T09:47:49.066Z,88.00
2023-01-23T09:50:58.926Z,88.00
2023-01-23T09:54:15.617Z,88.10
2023-01-23T09:57:22.240Z,88.10
2023-01-23T10:00:35.890Z,88.10
2023-01-23T10:03:37.663Z,88.10
2023-01-23T10:06:51.281Z,88.10
2023-01-23T10:10:36.440Z,88.00
2023-01-23T10:13:58.851Z,88.00
2023-01-23T10:17:28.598Z,87.90
2023-01-23T10:20:44.568Z,88.00
2023-01-23T10:24:19.412Z,88.00
2023-01-23T10:27:44.608Z,88.00
2023-01-23T10:30:53.965Z,88.00
2023-01-23T10:34:09.369Z,88.00
2023-01-23T10:37:21.604Z,88.00
2023-01-23T10:40:45.783Z,88.00
2023-01-23T10:43:50.579Z,88.00
2023-01-23T10:46:59.385Z,88.00
2023-01-23T10:50:01.885Z,88.00
2023-01-23T10:53:07.882Z,88.00
2023-01-23T10:56:16.290Z,88.10
2023-01-23T10:59:50.575Z,88.00
2023-01-23T11:02:52.470Z,87.90
2023-01-23T11:06:05.233Z,87.90
2023-01-23T11:09:19.340Z,87.90
2023-01-23T11:12:31.880Z,87.90
2023-01-23T11:15:38.066Z,87.90
2023-01-23T11:18:52.606Z,87.90
2023-01-23T11:22:00.179Z,88.00
2023-01-23T11:25:27.845Z,87.90
2023-01-23T11:28:34.499Z,87.90
2023-01-23T11:31:41.305Z,87.90
2023-01-23T11:34:50.171Z,87.90
2023-01-23T11:37:56.402Z,87.80
2023-01-23T11:40:58.360Z,87.80
2023-01-23T11:44:08.048Z,87.80
2023-01-23T11:47:43.269Z,87.80
2023-01-23T11:50:55.789Z,87.80
2023-01-23T11:54:12.493Z,87.60
2023-01-23T11:57:46.044Z,87.70
2023-01-23T12:01:19.939Z,87.70
2023-01-23T12:04:43.399Z,87.70
2023-01-23T12:07:53.497Z,87.60
2023-01-23T12:11:19.630Z,87.60
2023-01-23T12:14:34.106Z,87.60
2023-01-23T12:17:56.492Z,87.60
2023-01-23T12:21:10.680Z,88.10
2023-01-23T12:24:31.579Z,87.50
2023-01-23T12:27:40.151Z,87.50
2023-01-23T12:31:05.656Z,88.10
2023-01-23T12:34:42.020Z,87.50
2023-01-23T12:38:21.465Z,87.50
2023-01-23T12:41:41.235Z,87.40
2023-01-23T12:45:14.470Z,87.30
2023-01-23T12:48:23.774Z,87.30
2023-01-23T12:51:36.356Z,87.30
2023-01-23T12:54:42.953Z,87.20
2023-01-23T12:57:59.489Z,87.20
2023-01-23T13:01:23.715Z,87.20
2023-01-23T13:04:49.032Z,87.10
2023-01-23T13:08:25.247Z,87.10
2023-01-23T13:11:42.675Z,87.10
2023-01-23T13:15:06.975Z,87.10
2023-01-23T13:18:28.944Z,87.10
2023-01-23T13:21:48.896Z,87.10
2023-01-23T13:25:16.939Z,87.00
2023-01-23T13:28:45.895Z,87.00
2023-01-23T13:31:52.021Z,87.10
2023-01-23T13:34:53.672Z,87.00
2023-01-23T13:37:58.750Z,87.10
2023-01-23T13:41:03.799Z,87.10
2023-01-23T13:44:21.329Z,87.00
2023-01-23T14:23:34.245Z,86.80
2023-01-23T14:26:49.607Z,86.80
2023-01-23T14:30:02.906Z,86.70
2023-01-23T14:33:17.301Z,86.70
2023-01-23T14:36:19.387Z,86.70
2023-01-23T14:39:27.255Z,86.80
2023-01-23T14:42:30.079Z,86.80
2023-01-23T14:45:35.159Z,86.70
2023-01-23T14:48:40.485Z,86.70
2023-01-23T14:51:55.614Z,86.70
2023-01-23T14:55:01.184Z,86.60
2023-01-23T14:58:21.840Z,86.70
2023-01-23T15:01:24.146Z,86.70
2023-01-23T15:04:29.121Z,86.60
2023-01-23T15:07:30.636Z,86.60
2023-01-23T15:10:43.171Z,86.50
2023-01-23T15:13:50.159Z,86.50
2023-01-23T15:17:18.335Z,86.50
2023-01-23T15:20:37.618Z,86.40
2023-01-23T15:23:59.612Z,86.40
2023-01-23T15:27:02.970Z,86.40
2023-01-23T15:30:39.505Z,87.00
2023-01-23T15:33:41.980Z,86.30
2023-01-23T15:37:11.778Z,86.40
2023-01-23T15:40:18.953Z,86.40
2023-01-23T15:43:22.499Z,86.40
2023-01-23T15:46:24.054Z,86.40
2023-01-23T15:49:28.678Z,86.40
2023-01-23T15:52:47.509Z,86.30
2023-01-23T15:55:51.098Z,86.30
2023-01-23T15:58:52.767Z,86.30
2023-01-23T16:01:56.247Z,86.30
2023-01-23T16:04:58.119Z,86.30
2023-01-23T16:08:02.762Z,86.40
2023-01-23T16:11:04.354Z,86.40
2023-01-23T16:14:15.359Z,86.30
2023-01-23T16:17:17.434Z,86.20
2023-01-23T16:20:26.116Z,86.30
2023-01-23T16:23:31.230Z,86.30
2023-01-23T16:26:39.668Z,86.30
2023-01-23T16:29:43.424Z,86.30
2023-01-23T16:32:47.425Z,86.20
2023-01-23T16:35:50.218Z,86.30
2023-01-23T16:38:57.526Z,86.30
2023-01-23T16:41:59.387Z,86.20
2023-01-23T16:45:09.246Z,86.30
2023-01-23T16:48:15.427Z,86.20
2023-01-23T16:51:25.037Z,86.20
2023-01-23T16:54:26.535Z,86.80
2023-01-23T16:57:30.317Z,86.20
2023-01-23T17:00:35.428Z,86.20
2023-01-23T17:03:43.014Z,86.20
2023-01-23T17:06:44.636Z,86.20
2023-01-23T17:09:48.705Z,86.00
2023-01-23T17:12:54.698Z,86.10
2023-01-23T17:16:00.060Z,86.10
2023-01-23T17:19:06.204Z,86.10
2023-01-23T17:22:21.709Z,86.10
2023-01-23T17:25:24.430Z,86.10
2023-01-23T17:28:28.501Z,86.00
2023-01-23T17:31:31.905Z,86.20
2023-01-23T17:34:49.443Z,86.00
2023-01-23T17:37:51.635Z,86.00
2023-01-23T17:40:55.042Z,86.10
2023-01-23T17:43:56.491Z,86.10
2023-01-23T17:46:59.934Z,86.10
2023-01-23T17:50:02.485Z,86.10
2023-01-23T17:53:05.966Z,86.20
2023-01-23T17:56:07.341Z,86.20
2023-01-23T17:59:11.204Z,86.20
2023-01-23T18:02:24.761Z,86.20
2023-01-23T18:05:28.245Z,86.20
2023-01-23T18:08:29.619Z,86.20
2023-01-23T18:11:33.055Z,86.20
2023-01-23T18:14:34.517Z,86.20
2023-01-23T18:17:54.930Z,86.20
2023-01-23T18:20:56.852Z,86.20
2023-01-23T18:24:00.411Z,86.20
2023-01-23T18:27:01.870Z,86.20
2023-01-23T18:30:14.264Z,86.20
2023-01-23T18:33:35.957Z,86.20
2023-01-23T18:36:55.342Z,86.20
2023-01-23T18:40:17.365Z,86.20
2023-01-23T18:43:39.228Z,86.30
2023-01-23T18:46:40.846Z,86.20
2023-01-23T18:49:44.372Z,86.20
2023-01-23T18:52:51.063Z,86.20
2023-01-23T18:55:57.321Z,86.20
2023-01-23T18:59:14.115Z,86.20
2023-01-23T19:02:24.468Z,86.20
2023-01-23T19:05:28.166Z,86.30
2023-01-23T19:08:32.119Z,86.30
2023-01-23T19:11:41.016Z,86.20
2023-01-23T19:14:56.651Z,86.20
2023-01-23T19:18:01.004Z,86.20
2023-01-23T19:21:04.360Z,86.20
2023-01-23T19:24:06.226Z,86.80
2023-01-23T19:27:20.578Z,86.10
2023-01-23T19:30:22.966Z,86.20
2023-01-23T19:33:26.629Z,86.20
2023-01-23T19:36:28.982Z,86.20
2023-01-23T19:39:32.389Z,86.20
2023-01-23T19:42:51.105Z,86.30
2023-01-23T19:45:59.538Z,86.20
2023-01-23T19:49:03.039Z,86.20
2023-01-23T19:52:09.468Z,86.20
2023-01-23T19:55:23.267Z,86.20
2023-01-23T19:58:26.817Z,86.20
2023-01-23T20:01:36.445Z,86.20
2023-01-23T20:04:39.879Z,86.20
2023-01-23T20:07:41.325Z,86.20
2023-01-23T20:10:44.717Z,86.10
2023-01-23T20:13:46.415Z,86.20
2023-01-23T20:16:50.055Z,86.20
2023-01-23T20:19:52.615Z,86.20
2023-01-23T20:22:56.088Z,86.20
2023-01-23T20:25:58.396Z,86.20
2023-01-23T20:29:03.325Z,86.30
2023-01-23T20:32:04.925Z,86.20
2023-01-23T20:35:08.483Z,86.20
2023-01-23T20:38:09.917Z,86.20
2023-01-23T20:41:18.244Z,86.20
2023-01-23T20:44:19.622Z,86.20
2023-01-23T20:47:23.072Z,86.20
2023-01-23T20:50:24.467Z,86.20
2023-01-23T20:53:30.684Z,86.20
2023-01-23T20:56:32.106Z,86.20
2023-01-23T20:59:35.593Z,86.20
2023-01-23T21:02:37.048Z,86.20
2023-01-23T21:05:40.487Z,86.20
2023-01-23T21:08:42.022Z,86.20
2023-01-23T21:11:45.751Z,86.20
2023-01-23T21:14:47.177Z,86.20
2023-01-23T21:17:50.547Z,86.20
2023-01-23T21:20:52.291Z,86.10
2023-01-23T21:23:55.704Z,86.10
2023-01-23T21:26:57.163Z,86.00
2023-01-23T21:30:00.651Z,86.10
2023-01-23T21:33:02.092Z,86.20
2023-01-23T21:36:05.935Z,86.20
2023-01-23T21:39:09.429Z,86.10
2023-01-23T21:42:13.759Z,86.10
2023-01-23T21:45:15.172Z,86.10
2023-01-23T21:48:18.548Z,86.10
2023-01-23T21:51:21.267Z,86.10
2023-01-23T21:54:24.808Z,86.10
2023-01-23T21:57:26.247Z,86.10
2023-01-23T22:00:48.199Z,86.10
2023-01-23T22:03:50.053Z,86.10
2023-01-23T22:06:55.357Z,86.10
2023-01-23T22:09:57.011Z,86.10
2023-01-23T22:13:00.479Z,86.10
2023-01-23T22:16:02.288Z,86.10
2023-01-23T22:19:05.717Z,86.10
2023-01-23T22:22:07.840Z,86.10
2023-01-23T22:25:11.317Z,86.10
2023-01-23T22:28:12.745Z,86.10
2023-01-23T22:31:16.727Z,86.10
2023-01-23T22:34:18.174Z,86.10
2023-01-23T22:37:22.229Z,86.20
2023-01-23T22:40:23.660Z,86.20
2023-01-23T22:43:27.073Z,86.10
2023-01-23T22:46:28.541Z,86.20
2023-01-23T22:49:31.939Z,86.10
2023-01-23T22:52:34.387Z,86.10
2023-01-23T22:55:37.836Z,86.10
2023-01-23T22:58:39.472Z,86.10
2023-01-23T23:01:43.059Z,86.20
2023-01-23T23:04:44.888Z,86.10
2023-01-23T23:07:48.310Z,86.20
2023-01-23T23:10:59.556Z,86.20
2023-01-23T23:14:02.940Z,86.20
2023-01-23T23:17:04.767Z,86.10
2023-01-23T23:20:08.727Z,86.10
2023-01-23T23:23:10.176Z,86.20
2023-01-23T23:26:13.838Z,86.20
2023-01-23T23:29:16.178Z,86.20
2023-01-23T23:32:19.591Z,86.20
2023-01-23T23:35:21.194Z,86.20
2023-01-23T23:38:24.862Z,86.20
2023-01-23T23:41:26.337Z,86.20
2023-01-23T23:44:29.710Z,86.30
2023-01-23T23:47:31.147Z,86.30
2023-01-23T23:50:34.519Z,86.30
2023-01-23T23:53:36.256Z,86.30
2023-01-23T23:56:39.703Z,86.30
2023-01-23T23:59:41.151Z,86.30
